Winnsboro, SC

9:18 AM EST on February 07, 2016 (GMT -0500)
Fairfield County | | Change Station
CLOSE
Current Station
Airport
Location: Winnsboro,
Elevation: 577 ft
Nearby Weather Stations

Elev 577 ft 34.32 °N, 81.11 °W | Updated 3 minutes ago

Clear
Clear
39 °F
Feels Like 33 °F
N
9
Wind Variable Wind from North

Today
High -- | Low -- °F
--% Chance of Precip.
Yesterday
High -- | Low -- °F
Precip. -- in
Pressure 30.05 in
Visibility 10.0 miles
Clouds Scattered Clouds 5500 ft
Windchill 33 °F
Dew Point 25 °F
Humidity 56%
Rainfall 0.00 in
Snow Depth Not available.
7:17 AM 5:59 PM
Waning Crescent, 1% visible
METAR KFDW 071415Z AUTO 35008KT 10SM SCT055 04/M04 A3005 RMK AO1
Pressure 30.05 in
Visibility 10.0 miles
Clouds Scattered Clouds 5500 ft
Windchill 33 °F
Dew Point 25 °F
Humidity 56%
Rainfall 0.00 in
Snow Depth Not available.
7:17 AM 5:59 PM
Waning Crescent, 1% visible
METAR KFDW 071415Z AUTO 35008KT 10SM SCT055 04/M04 A3005 RMK AO1

10-Day Weather Forecast

Almanac

Astronomy

Feb. 07, 2016 Rise Set
Actual Time
Civil Twilight
Nautical Twilight
Astronomical Twilight
Moon
Length of Visible Light
Length of Day
Tomorrow will be .
, % of the Moon is Illuminated

Today's Extremes

State Highs State Lows

Community

WunderPhotos

Upload Photos

1,891,204 photos uploaded!

WunderBlog® & News

Nearby

Air Quality

  Air Quality AQ Index Pollutant
Not available.

Snow Depth

Station Depth Elevation

Earthquake Activity

City Distance Mag. Time & Date
Minimum magnitude displayed is 2.5.

Coastal Water Temperatures

Place Temperature

Stations

Nearby Weather Stations

Station Location Temp. Windchill Dew Point Humidity Wind Precip. Elev Updated Type
                   

Watches & Warnings

There are currently no watches in effect.